Map

Track Data

SID SEASON NUMBER BASIN SUBBASIN NAME ISO_TIME NATURE LAT LON WMO_WIND WMO_PRES WMO_AGENCY TRACK_TYPE DIST2LAND LANDFALL IFLAG USA_AGENCY USA_ATCF_ID USA_LAT USA_LON USA_RECORD USA_STATUS USA_WIND USA_PRES USA_SSHS USA_R34_NE USA_R34_SE USA_R34_SW USA_R34_NW USA_R50_NE USA_R50_SE USA_R50_SW USA_R50_NW USA_R64_NE USA_R64_SE USA_R64_SW USA_R64_NW USA_POCI USA_ROCI USA_RMW USA_EYE TOKYO_LAT TOKYO_LON TOKYO_GRADE TOKYO_WIND TOKYO_PRES TOKYO_R50_DIR TOKYO_R50_LONG TOKYO_R50_SHORT TOKYO_R30_DIR TOKYO_R30_LONG TOKYO_R30_SHORT TOKYO_LAND CMA_LAT CMA_LON CMA_CAT CMA_WIND CMA_PRES HKO_LAT HKO_LON HKO_CAT HKO_WIND HKO_PRES NEWDELHI_LAT NEWDELHI_LON NEWDELHI_GRADE NEWDELHI_WIND NEWDELHI_PRES NEWDELHI_CI NEWDELHI_DP NEWDELHI_POCI REUNION_LAT REUNION_LON REUNION_TYPE REUNION_WIND REUNION_PRES REUNION_TNUM REUNION_CI REUNION_RMW REUNION_R34_NE REUNION_R34_SE REUNION_R34_SW REUNION_R34_NW REUNION_R50_NE REUNION_R50_SE REUNION_R50_SW REUNION_R50_NW REUNION_R64_NE REUNION_R64_SE REUNION_R64_SW REUNION_R64_NW BOM_LAT BOM_LON BOM_TYPE BOM_WIND BOM_PRES BOM_TNUM BOM_CI BOM_RMW BOM_R34_NE BOM_R34_SE BOM_R34_SW BOM_R34_NW BOM_R50_NE BOM_R50_SE BOM_R50_SW BOM_R50_NW BOM_R64_NE BOM_R64_SE BOM_R64_SW BOM_R64_NW BOM_ROCI BOM_POCI BOM_EYE BOM_POS_METHOD BOM_PRES_METHOD NADI_LAT NADI_LON NADI_CAT NADI_WIND NADI_PRES WELLINGTON_LAT WELLINGTON_LON WELLINGTON_WIND WELLINGTON_PRES DS824_LAT DS824_LON DS824_STAGE DS824_WIND DS824_PRES TD9636_LAT TD9636_LON TD9636_STAGE TD9636_WIND TD9636_PRES TD9635_LAT TD9635_LON TD9635_WIND TD9635_PRES TD9635_ROCI NEUMANN_LAT NEUMANN_LON NEUMANN_CLASS NEUMANN_WIND NEUMANN_PRES MLC_LAT MLC_LON MLC_CLASS MLC_WIND MLC_PRES USA_GUST BOM_GUST BOM_GUST_PER REUNION_GUST REUNION_GUST_PER USA_SEAHGT USA_SEARAD_NE USA_SEARAD_SE USA_SEARAD_SW USA_SEARAD_NW STORM_SPEED STORM_DIR
1997199S04079 1998 55 SI MM NOT_NAMED 1997-07-18 00:00:00 TS -3.80000 78.7000 main 1107 1107 O___________O_ jtwc_sh SH011998 -3.80000 78.7000 15 -1 -3.80000 78.7000 TC 15 1 285
1997199S04079 1998 55 SI MM NOT_NAMED 1997-07-18 03:00:00 TS -3.79000 78.6600 main 1107 1107 P___________P_ SH011998 -3.79000 78.6600 15 -1 -3.79000 78.6600 TC 15 1 270
1997199S04079 1998 55 SI MM NOT_NAMED 1997-07-18 06:00:00 TS -3.80000 78.6000 main 1109 1109 O___________O_ jtwc_sh SH011998 -3.80000 78.6000 15 -1 -3.80000 78.6000 TC 15 2 251
1997199S04079 1998 55 SI MM NOT_NAMED 1997-07-18 09:00:00 TS -3.84250 78.5075 main 1111 1111 P___________P_ SH011998 -3.84250 78.5075 17 -1 -3.84250 78.5075 TC 17 2 243
1997199S04079 1998 55 SI MM NOT_NAMED 1997-07-18 12:00:00 TS -3.90000 78.4000 main 1125 1125 O___________O_ jtwc_sh SH011998 -3.90000 78.4000 20 -1 -3.90000 78.4000 TC 20 2 242
1997199S04079 1998 55 SI MM NOT_NAMED 1997-07-18 15:00:00 TS -3.95000 78.3000 main 1127 1127 P___________P_ SH011998 -3.95000 78.3000 22 -1 -3.95000 78.3000 TC 22 2 243
1997199S04079 1998 55 SI MM NOT_NAMED 1997-07-18 18:00:00 TS -4.00000 78.2000 main 1141 1141 O___________O_ jtwc_sh SH011998 -4.00000 78.2000 25 -1 -4.00000 78.2000 TC 25 2 245
1997199S04079 1998 55 SI MM NOT_NAMED 1997-07-18 21:00:00 TS -4.04250 78.1000 main 1143 1143 P___________P_ SH011998 -4.04250 78.1000 27 -1 -4.04250 78.1000 TC 27 2 243
1997199S04079 1998 55 SI MM NOT_NAMED 1997-07-19 00:00:00 TS -4.10000 78.0000 main 1157 1157 O___________O_ jtwc_sh SH011998 -4.10000 78.0000 30 -1 -4.10000 78.0000 TC 30 3 233
1997199S04079 1998 55 SI MM NOT_NAMED 1997-07-19 03:00:00 TS -4.19250 77.9000 main 1170 1170 P___________P_ SH011998 -4.19250 77.9000 32 -1 -4.19250 77.9000 TC 32 3 225
1997199S04079 1998 55 SI MM NOT_NAMED 1997-07-19 06:00:00 TS -4.30000 77.8000 main 1184 1184 O___________O_ jtwc_sh SH011998 -4.30000 77.8000 35 0 -4.30000 77.8000 TC 35 3 224
1997199S04079 1998 55 SI MM NOT_NAMED 1997-07-19 09:00:00 TS -4.39250 77.7075 main 1198 1198 P___________P_ SH011998 -4.39250 77.7075 30 -1 -4.39250 77.7075 TC 30 3 225
1997199S04079 1998 55 SI MM NOT_NAMED 1997-07-19 12:00:00 TS -4.50000 77.6000 main 1212 1212 O___________O_ jtwc_sh SH011998 -4.50000 77.6000 25 -1 -4.50000 77.6000 TC 25 3 226
1997199S04079 1998 55 SI MM NOT_NAMED 1997-07-19 15:00:00 TS -4.62750 77.4650 main 1226 1226 P___________P_ SH011998 -4.62750 77.4650 25 -1 -4.62750 77.4650 TC 25 4 225
1997199S04079 1998 55 SI MM NOT_NAMED 1997-07-19 18:00:00 TS -4.80000 77.3000 main 1253 1253 O___________O_ jtwc_sh SH011998 -4.80000 77.3000 25 -1 -4.80000 77.3000 TC 25 6 222
1997199S04079 1998 55 SI MM NOT_NAMED 1997-07-19 21:00:00 TS -5.03501 77.0925 main 1281 1281 P___________P_ SH011998 -5.03501 77.0925 25 -1 -5.03501 77.0925 TC 25 7 216
1997199S04079 1998 55 SI MM NOT_NAMED 1997-07-20 00:00:00 TS -5.36667 76.8889 25 1002 reunion main 1331 1331 O____O______O_ jtwc_sh SH011998 -5.30000 76.9000 25 -1 -5.90000 76.8000 2 25 1002 2.00000 2.00000 -5.30000 76.9000 TC 25 7 208
1997199S04079 1998 55 SI MM NOT_NAMED 1997-07-20 03:00:00 TS -5.64349 76.7700 main 1356 1356 P____P______P_ SH011998 -5.55749 76.7775 25 -1 -5.98750 76.7400 2 25 1002 -5.55749 76.7775 TC 25 6 200
1997199S04079 1998 55 SI MM NOT_NAMED 1997-07-20 06:00:00 TS -5.88182 76.7000 25 1002 reunion main 1391 1391 O____O______O_ jtwc_sh SH011998 -5.80000 76.7000 25 -1 -6.10000 76.7000 2 25 1002 2.00000 2.00000 -5.80000 76.7000 TC 25 5 193
1997199S04079 1998 55 SI MM NOT_NAMED 1997-07-20 09:00:00 TS -6.09333 76.6641 main 1412 1412 P____P______P_ SH011998 -6.01499 76.6500 27 -1 -6.25000 76.6925 2 25 1001 -6.01499 76.6500 TC 27 4 191
1997199S04079 1998 55 SI MM NOT_NAMED 1997-07-20 12:00:00 TS -6.26667 76.6333 25 1000 reunion main 1437 1437 O____O______O_ jtwc_sh SH011998 -6.20000 76.6000 30 -1 -6.40000 76.7000 2 25 1000 2.00000 2.00000 -6.20000 76.6000 TC 30 3 196
1997199S04079 1998 55 SI MM NOT_NAMED 1997-07-20 15:00:00 TS -6.40750 76.5717 main 1448 1448 P____P______P_ SH011998 -6.35750 76.5075 32 -1 -6.50750 76.7000 2 26 999 -6.35750 76.5075 TC 32 3 206
1997199S04079 1998 55 SI MM NOT_NAMED 1997-07-20 18:00:00 TS -6.53333 76.5000 28 998 reunion main 1462 1462 O____O______O_ jtwc_sh SH011998 -6.50000 76.4000 35 0 -6.60000 76.7000 2 28 998 2.50000 2.50000 -6.50000 76.4000 TC 35 3 209
1997199S04079 1998 55 SI MM NOT_NAMED 1997-07-20 21:00:00 TS -6.66417 76.4308 main 1487 1487 P____P______P_ SH011998 -6.65000 76.2925 37 0 -6.69250 76.7075 2 28 998 -6.65000 76.2925 TC 37 3 206
1997199S04079 1998 55 SI MM NOT_NAMED 1997-07-21 00:00:00 TS -6.80000 76.3667 28 998 reunion main 1497 1497 O____O______O_ jtwc_sh SH011998 -6.80000 76.2000 40 0 -6.80000 76.7000 2 28 998 2.50000 2.50000 -6.80000 76.2000 TC 40 3 201
1997199S04079 1998 55 SI MM NOT_NAMED 1997-07-21 03:00:00 TS -6.94250 76.3167 main 1511 1511 P____P______P_ SH011998 -6.94249 76.1500 42 0 -6.94250 76.6500 2 28 998 -6.94249 76.1500 TC 42 3 197
1997199S04079 1998 55 SI MM NOT_NAMED 1997-07-21 06:00:00 TS -7.10000 76.2667 28 998 reunion main 1533 1533 O____O______O_ jtwc_sh SH011998 -7.10000 76.1000 45 0 -7.10000 76.6000 2 28 998 2.50000 2.50000 -7.10000 76.1000 TC 45 4 199
1997199S04079 1998 55 SI MM NOT_NAMED 1997-07-21 09:00:00 TS -7.28334 76.2000 main 1557 1557 P____P______P_ SH011998 -7.30001 76.0000 45 0 -7.25000 76.6000 2 29 996 -7.30001 76.0000 TC 45 4 200
1997199S04079 1998 55 SI MM NOT_NAMED 1997-07-21 12:00:00 TS -7.46667 76.1333 30 995 reunion main 1582 1582 O____O______O_ jtwc_sh SH011998 -7.50000 75.9000 45 0 -7.40000 76.6000 2 30 995 2.50000 2.50000 -7.50000 75.9000 TC 45 4 200
1997199S04079 1998 55 SI MM NOT_NAMED 1997-07-21 15:00:00 TS -7.61666 76.0833 main 1593 1593 P____P______P_ SH011998 -7.65000 75.8425 45 0 -7.55000 76.5650 2 30 995 -7.65000 75.8425 TC 45 3 197
1997199S04079 1998 55 SI MM NOT_NAMED 1997-07-21 18:00:00 TS -7.76667 76.0333 30 995 reunion main 1617 1617 O____O______O_ jtwc_sh SH011998 -7.80000 75.8000 45 0 -7.70000 76.5000 2 30 995 2.50000 2.50000 -7.80000 75.8000 TC 45 4 200
1997199S04079 1998 55 SI MM NOT_NAMED 1997-07-21 21:00:00 TS -7.95000 75.9667 main 1628 1628 P____P______P_ SH011998 -8.00000 75.7425 45 0 -7.85000 76.4150 2 30 995 -8.00000 75.7425 TC 45 4 200
1997199S04079 1998 55 SI MM NOT_NAMED 1997-07-22 00:00:00 TS -8.13333 75.9000 30 995 reunion main 1653 1653 O____O______O_ jtwc_sh SH011998 -8.20000 75.7000 45 0 -8.00000 76.3000 2 30 995 2.00000 2.50000 -8.20000 75.7000 TC 45 4 198
1997199S04079 1998 55 SI MM NOT_NAMED 1997-07-22 03:00:00 TS -8.28833 75.8550 main 1674 1674 P____P______P_ SH011998 -8.35000 75.7075 45 0 -8.16501 76.1500 2 30 995 -8.35000 75.7075 TC 45 3 197
1997199S04079 1998 55 SI MM NOT_NAMED 1997-07-22 06:00:00 TS -8.43333 75.8000 30 995 reunion main 1688 1688 O____O______O_ jtwc_sh SH011998 -8.50000 75.7000 45 0 -8.30000 76.0000 2 30 995 2.00000 2.50000 -8.50000 75.7000 TC 45 3 205
1997199S04079 1998 55 SI MM NOT_NAMED 1997-07-22 09:00:00 TS -8.58833 75.7100 main 1713 1713 P____P______P_ SH011998 -8.70000 75.6225 45 0 -8.36500 75.8850 2 29 996 -8.70000 75.6225 TC 45 4 213
1997199S04079 1998 55 SI MM NOT_NAMED 1997-07-22 12:00:00 TS -8.73333 75.6000 28 997 reunion main 1727 1727 O____O______O_ jtwc_sh SH011998 -8.90000 75.5000 45 0 -8.40000 75.8000 2 28 997 2.00000 2.50000 -8.90000 75.5000 TC 45 3 219
1997199S04079 1998 55 SI MM NOT_NAMED 1997-07-22 15:00:00 TS -8.85500 75.4883 main 1752 1752 P____P______P_ SH011998 -9.05750 75.3575 45 0 -8.44999 75.7500 2 26 998 -9.05750 75.3575 TC 45 3 225
1997199S04079 1998 55 SI MM NOT_NAMED 1997-07-22 18:00:00 TS -8.96667 75.3667 25 1000 reunion main 1766 1766 O____O______O_ jtwc_sh SH011998 -9.20000 75.2000 45 0 -8.50000 75.7000 2 25 1000 2.00000 2.00000 -9.20000 75.2000 TC 45 3 226
1997199S04079 1998 55 SI MM NOT_NAMED 1997-07-22 21:00:00 TS -9.08832 75.2458 main 1784 1784 P____P______P_ SH011998 -9.37248 75.0575 42 0 -8.51999 75.6225 2 25 1000 -9.37248 75.0575 TC 42 4 228
1997199S04079 1998 55 SI MM NOT_NAMED 1997-07-23 00:00:00 TS -9.20000 75.1000 25 1000 reunion main 1798 1798 O____O______O_ jtwc_sh SH011998 -9.50000 74.9000 40 0 -8.60000 75.5000 2 25 1000 2.00000 2.00000 -9.50000 74.9000 TC 40 4 236
1997199S04079 1998 55 SI MM NOT_NAMED 1997-07-23 03:00:00 TS -9.30581 74.9225 main 1816 1816 P____P______P_ SH011998 -9.53749 74.7150 40 0 -8.84246 75.3375 2 25 1000 -9.53749 74.7150 TC 40 4 247
1997199S04079 1998 55 SI MM NOT_NAMED 1997-07-23 06:00:00 TS -9.36667 74.7000 25 1000 reunion main 1834 1834 O____O______O_ jtwc_sh SH011998 -9.50000 74.5000 40 0 -9.10000 75.1000 2 25 1000 1.50000 2.00000 -9.50000 74.5000 TC 40 5 263
1997199S04079 1998 55 SI MM NOT_NAMED 1997-07-23 09:00:00 TS -9.36081 74.4392 main 1845 1835 P____P______P_ SH011998 -9.41498 74.2650 40 0 -9.25247 74.7875 2 25 1000 -9.41498 74.2650 TC 40 6 277
1997199S04079 1998 55 SI MM NOT_NAMED 1997-07-23 12:00:00 TS -9.30000 74.1333 25 1000 reunion main 1847 1845 O____O______O_ jtwc_sh SH011998 -9.30000 74.0000 40 0 -9.30000 74.4000 2 25 1000 1.50000 2.00000 -9.30000 74.0000 TC 40 7 283
1997199S04079 1998 55 SI MM NOT_NAMED 1997-07-23 15:00:00 TS -9.21251 73.7908 main 1849 1848 P____P______P_ SH011998 -9.19997 73.7150 40 0 -9.23757 73.9424 2 25 1000 -9.19997 73.7150 TC 40 7 286
1997199S04079 1998 55 SI MM NOT_NAMED 1997-07-23 18:00:00 TS -9.10000 73.4333 25 1000 reunion main 1857 1851 O____O______O_ jtwc_sh SH011998 -9.10000 73.4000 40 0 -9.10000 73.5000 2 25 1000 1.50000 2.00000 -9.10000 73.4000 TC 40 7 289
1997199S04079 1998 55 SI MM NOT_NAMED 1997-07-23 21:00:00 TS -8.96830 73.0925 main 1860 1855 P____P______P_ SH011998 -8.97746 73.0649 37 0 -8.94997 73.1475 2 22 1002 -8.97746 73.0649 TC 37 7 290
1997199S04079 1998 55 SI MM NOT_NAMED 1997-07-24 00:00:00 TS -8.86667 72.7667 20 1004 reunion main 1865 1860 O____O______O_ jtwc_sh SH011998 -8.90000 72.7000 35 0 -8.80000 72.9000 6 20 1004 9.90000 -8.90000 72.7000 TC 35 6 282
1997199S04079 1998 55 SI MM NOT_NAMED 1997-07-24 03:00:00 TS -8.83413 72.4742 main 1870 1870 P____P______P_ SH011998 -8.90500 72.3000 32 -1 -8.69237 72.8226 6 20 1004 -8.90500 72.3000 TC 32 6 270
1997199S04079 1998 55 SI MM NOT_NAMED 1997-07-24 06:00:00 TS -8.86667 72.1667 20 1004 reunion main 1896 1896 O____O______O_ jtwc_sh SH011998 -9.00000 71.9000 30 -1 -8.60000 72.7000 6 20 1004 9.90000 -9.00000 71.9000 TC 30 7 260
1997199S04079 1998 55 SI MM NOT_NAMED 1997-07-24 09:00:00 TS -8.94913 71.8033 main 1917 1917 P____P______P_ SH011998 -9.17742 71.5500 27 -1 -8.49255 72.3099 6 20 1004 -9.17742 71.5500 TC 27 7 259
1997199S04079 1998 55 SI MM NOT_NAMED 1997-07-24 12:00:00 TS -9.00000 71.4400 20 1004 reunion main 1926 1901 O____O______O_ jtwc_sh SH011998 -9.40000 71.2000 25 -1 -8.40000 71.8000 6 20 1004 9.90000 -9.40000 71.2000 TC 25 7 268
1997199S04079 1998 55 SI MM NOT_NAMED 1997-07-24 15:00:00 TS -8.97876 71.0676 main 1901 1877 P____P______P_ SH011998 -9.60763 70.8126 25 -1 -8.34990 71.3226 6 -9.60763 70.8126 TC 25 8 285
1997199S04079 1998 55 SI MM NOT_NAMED 1997-07-24 18:00:00 TS -8.80000 70.6667 reunion main 1884 1877 O____O______O_ jtwc_sh SH011998 -9.80000 70.4000 25 -1 -8.30000 70.8000 6 9.90000 -9.80000 70.4000 TC 25 11 312
1997199S04079 1998 55 SI MM NOT_NAMED 1997-07-24 21:00:00 TS -8.21497 70.2150 main 1893 1856 _____P________ SH011998 -1 -8.21497 70.2150 6 TC 13 304
1997199S04079 1998 55 SI MM NOT_NAMED 1997-07-25 00:00:00 TS -8.10000 69.6000 reunion main 1856 1820 _____O________ -1 -8.10000 69.6000 6 9.90000 12 282
1997199S04079 1998 55 SI MM NOT_NAMED 1997-07-25 03:00:00 TS -7.95764 68.9949 main 1820 1795 _____P________ -1 -7.95764 68.9949 6 12 284
1997199S04079 1998 55 SI MM NOT_NAMED 1997-07-25 06:00:00 TS -7.80000 68.4000 reunion main 1795 _____O________ -1 -7.80000 68.4000 6 9.90000 12 285

About IBTrACS Database

This database is a web-friendly format of International Best Track Archive for Climate Stewardship (IBTrACS), a global best track data archive curated by NOAA dating back to 1842.

Updated: 2021-10-21